createdAt,value
2019-05-09T00:03:45.853Z,991.7
2019-05-09T00:14:34.243Z,991.8
2019-05-09T00:24:46.529Z,991.8
2019-05-09T00:35:00.985Z,991.9
2019-05-09T00:45:15.430Z,991.9
2019-05-09T00:56:01.053Z,991.9
2019-05-09T01:06:18.777Z,991.9
2019-05-09T01:16:33.424Z,991.9
2019-05-09T01:27:17.935Z,992.0
2019-05-09T01:37:34.098Z,992.1
2019-05-09T01:47:45.396Z,992.1
2019-05-09T01:58:17.088Z,992.1
2019-05-09T02:08:34.359Z,992.0
2019-05-09T02:18:44.582Z,992.0
2019-05-09T02:29:30.785Z,992.0
2019-05-09T02:40:20.808Z,992.1
2019-05-09T02:51:48.742Z,992.0
2019-05-09T03:03:19.737Z,991.9
2019-05-09T03:14:40.191Z,992.0
2019-05-09T03:25:11.208Z,992.1
2019-05-09T03:35:57.587Z,991.9
2019-05-09T03:46:42.434Z,991.9
2019-05-09T03:58:43.912Z,991.8
2019-05-09T04:26:17.708Z,992.0
2019-05-09T04:55:29.192Z,992.2
2019-05-09T05:08:14.023Z,992.3
2019-05-09T05:32:59.797Z,992.4
2019-05-09T05:45:08.900Z,992.6
2019-05-09T05:55:23.348Z,992.5
2019-05-09T06:07:42.536Z,992.7
2019-05-09T06:18:18.266Z,992.7
2019-05-09T06:28:31.677Z,992.7
2019-05-09T06:38:45.722Z,992.7
2019-05-09T06:49:50.462Z,992.8
2019-05-09T07:00:11.591Z,992.7
2019-05-09T07:11:03.211Z,992.8
2019-05-09T07:21:45.512Z,992.7
2019-05-09T07:31:59.882Z,992.7
2019-05-09T07:42:14.117Z,992.8
2019-05-09T07:52:28.429Z,992.8
2019-05-09T08:02:39.679Z,992.7
2019-05-09T08:12:51.744Z,993.0
2019-05-09T08:23:03.794Z,993.0
2019-05-09T08:33:18.407Z,992.6
2019-05-09T08:43:29.248Z,992.8
2019-05-09T08:53:43.254Z,992.6
2019-05-09T09:03:57.523Z,992.6
2019-05-09T09:14:42.049Z,992.6
2019-05-09T09:24:55.778Z,992.5
2019-05-09T09:35:42.673Z,992.9
2019-05-09T09:46:07.252Z,992.6
2019-05-09T09:56:09.326Z,992.8
2019-05-09T10:06:59.205Z,992.5
2019-05-09T10:17:21.147Z,992.6
2019-05-09T10:29:17.676Z,992.2
2019-05-09T10:40:03.448Z,992.2
2019-05-09T10:50:18.309Z,992.3
2019-05-09T11:00:28.824Z,992.2
2019-05-09T11:10:40.130Z,992.2
2019-05-09T11:22:53.643Z,992.3
2019-05-09T13:33:02.347Z,993.1
2019-05-09T14:28:41.974Z,993.2
2019-05-09T14:38:57.933Z,993.3
2019-05-09T14:49:08.028Z,993.3
2019-05-09T15:02:18.525Z,993.4
2019-05-09T15:12:33.037Z,993.5
2019-05-09T15:35:40.189Z,993.8
2019-05-09T15:46:27.756Z,993.8
2019-05-09T15:56:38.373Z,993.7
2019-05-09T16:06:52.861Z,993.7
2019-05-09T16:17:07.798Z,993.8
2019-05-09T16:27:21.014Z,993.8
2019-05-09T16:37:52.542Z,993.8
2019-05-09T16:47:48.412Z,993.9
2019-05-09T16:57:59.613Z,994.0
2019-05-09T17:12:12.562Z,994.0
2019-05-09T17:22:27.264Z,994.2
2019-05-09T17:33:13.616Z,994.2
2019-05-09T17:43:27.737Z,994.4
2019-05-09T17:53:38.753Z,994.4
2019-05-09T18:54:07.459Z,995.1
2019-05-09T19:04:18.472Z,995.3
2019-05-09T19:14:29.749Z,995.4
2019-05-09T19:24:43.050Z,995.9
2019-05-09T19:34:57.581Z,996.0
2019-05-09T19:45:10.434Z,996.2
2019-05-09T19:55:23.820Z,996.2
2019-05-09T20:05:34.986Z,996.1
2019-05-09T20:15:46.472Z,996.3
2019-05-09T20:26:58.271Z,996.4
2019-05-09T20:37:12.195Z,996.5
2019-05-09T20:47:24.111Z,996.7
2019-05-09T20:57:38.479Z,996.9
2019-05-09T21:08:25.972Z,997.0
2019-05-09T21:18:39.470Z,997.0
2019-05-09T21:28:53.532Z,997.1
2019-05-09T21:39:06.888Z,997.3
2019-05-09T21:49:20.996Z,997.3
2019-05-09T21:59:32.108Z,997.6
2019-05-09T22:09:45.297Z,997.6
2019-05-09T22:19:58.658Z,997.6
2019-05-09T22:30:12.054Z,997.7
2019-05-09T22:40:27.149Z,997.8
2019-05-09T22:50:40.418Z,997.8
2019-05-09T23:00:54.478Z,997.9
2019-05-09T23:11:07.824Z,997.9
2019-05-09T23:21:20.881Z,997.9
2019-05-09T23:31:34.747Z,997.9
2019-05-09T23:41:48.460Z,997.9
2019-05-09T23:52:01.697Z,998.0
